Time;durP1;ratioP1;P1;durP2;ratioP2;P2;SDS_P1;SDS_P2;PMS_P1;PMS_P2;Temp;Humidity;BMP_temperature;BMP_pressure;BME280_temperature;BME280_humidity;BME280_pressure;Samples;Min_cycle;Max_cycle;Signal;HPM_P1;HPM_P2
2021/05/04 00:01:17;;;;;;;17.98;10.05;;;;;;;;;;4994648;28;20061;-74
2021/05/04 00:03:44;;;;;;;19.05;10.93;;;;;;;;;;4987931;28;20134;-74
2021/05/04 00:06:10;;;;;;;17.17;10.75;;;;;;;;;;4988382;28;20046;-74
2021/05/04 00:08:37;;;;;;;20.00;10.85;;;;;;;;;;4995386;28;20046;-73
2021/05/04 00:11:04;;;;;;;16.38;9.90;;;;;;;;;;4999316;28;20078;-74
2021/05/04 00:13:30;;;;;;;16.45;11.10;;;;;;;;;;4996168;28;20046;-74
2021/05/04 00:15:57;;;;;;;17.05;11.30;;;;;;;;;;4993576;28;20046;-74
2021/05/04 00:18:23;;;;;;;15.75;10.32;;;;;;;;;;4987961;28;20073;-74
2021/05/04 00:20:51;;;;;;;18.60;10.73;;;;;;;;;;4988053;28;20079;-74
2021/05/04 00:23:18;;;;;;;14.75;9.50;;;;;;;;;;4984382;28;20073;-74
2021/05/04 00:25:44;;;;;;;17.42;10.63;;;;;;;;;;4990308;28;20136;-74
2021/05/04 00:28:11;;;;;;;21.58;10.68;;;;;;;;;;4969162;28;20176;-74
2021/05/04 00:30:53;;;;;;;17.63;10.30;;;;;;;;;;4987647;28;20050;-74
2021/05/04 00:33:20;;;;;;;16.05;10.77;;;;;;;;;;4987236;28;20497;-74
2021/05/04 00:35:47;;;;;;;17.45;11.00;;;;;;;;;;4969743;28;20049;-74
2021/05/04 00:38:14;;;;;;;17.80;10.80;;;;;;;;;;4970212;28;20137;-74
2021/05/04 00:40:41;;;;;;;19.05;11.27;;;;;;;;;;4987065;28;20444;-74
2021/05/04 00:43:08;;;;;;;17.23;10.68;;;;;;;;;;4987366;28;20529;-74
2021/05/04 00:45:35;;;;;;;16.77;11.20;;;;;;;;;;4970314;28;20046;-74
2021/05/04 00:48:01;;;;;;;19.50;11.07;;;;;;;;;;4987770;28;20133;-74
2021/05/04 00:50:28;;;;;;;16.45;11.13;;;;;;;;;;4986873;28;20054;-74
2021/05/04 00:52:55;;;;;;;17.52;11.45;;;;;;;;;;4985827;28;20558;-74
2021/05/04 00:55:22;;;;;;;20.98;11.88;;;;;;;;;;4992769;28;20505;-74
2021/05/04 00:57:49;;;;;;;18.58;11.63;;;;;;;;;;4971843;28;20053;-74
2021/05/04 01:00:16;;;;;;;20.83;12.00;;;;;;;;;;4987474;28;20129;-74
2021/05/04 01:02:43;;;;;;;18.13;11.90;;;;;;;;;;4994466;28;20089;-74
2021/05/04 01:05:11;;;;;;;17.98;11.05;;;;;;;;;;4972372;28;20146;-74
2021/05/04 01:07:37;;;;;;;21.23;12.18;;;;;;;;;;4986340;28;20060;-74
2021/05/04 01:10:05;;;;;;;16.10;11.05;;;;;;;;;;4987237;28;20594;-74
2021/05/04 01:12:32;;;;;;;20.30;11.63;;;;;;;;;;4987507;28;20076;-74
2021/05/04 01:15:00;;;;;;;21.30;12.75;;;;;;;;;;4986729;28;20042;-74
2021/05/04 01:17:26;;;;;;;18.30;11.70;;;;;;;;;;4986169;28;20050;-74
2021/05/04 01:19:53;;;;;;;18.92;12.52;;;;;;;;;;4985985;28;20734;-74
2021/05/04 01:22:20;;;;;;;19.00;12.63;;;;;;;;;;4987155;28;20174;-74
2021/05/04 01:24:46;;;;;;;17.05;11.40;;;;;;;;;;4987080;28;20086;-74
2021/05/04 01:27:14;;;;;;;19.15;12.35;;;;;;;;;;4986832;28;20137;-74
2021/05/04 01:29:42;;;;;;;17.23;11.30;;;;;;;;;;4986047;28;20054;-74
2021/05/04 01:32:10;;;;;;;18.38;11.93;;;;;;;;;;4987401;28;20060;-74
2021/05/04 01:34:37;;;;;;;19.73;11.48;;;;;;;;;;4994911;28;20082;-74
2021/05/04 01:37:04;;;;;;;27.20;13.35;;;;;;;;;;4994316;28;20218;-74
2021/05/04 01:39:44;;;;;;;17.90;11.65;;;;;;;;;;4988859;28;20125;-74
2021/05/04 01:42:12;;;;;;;17.38;11.35;;;;;;;;;;4985695;28;20080;-74
2021/05/04 01:44:39;;;;;;;19.02;11.30;;;;;;;;;;4996412;28;20771;-74
2021/05/04 01:47:06;;;;;;;19.33;11.48;;;;;;;;;;5006395;28;20053;-73
2021/05/04 01:49:33;;;;;;;16.98;10.35;;;;;;;;;;4998857;28;20127;-74
2021/05/04 01:52:00;;;;;;;19.50;12.05;;;;;;;;;;4989869;28;20775;-74
2021/05/04 01:54:27;;;;;;;14.77;10.65;;;;;;;;;;4969134;28;20054;-74
2021/05/04 01:56:55;;;;;;;14.75;10.02;;;;;;;;;;4993500;28;21682;-74
2021/05/04 01:59:22;;;;;;;12.65;9.48;;;;;;;;;;4986479;28;20141;-74
2021/05/04 02:01:49;;;;;;;14.02;9.73;;;;;;;;;;4985509;28;20038;-74
2021/05/04 02:04:16;;;;;;;13.95;9.63;;;;;;;;;;4994317;28;20051;-73
2021/05/04 02:06:42;;;;;;;17.58;9.48;;;;;;;;;;4999813;28;20054;-74
2021/05/04 02:09:10;;;;;;;18.80;8.82;;;;;;;;;;4989961;28;20050;-74
2021/05/04 02:11:37;;;;;;;13.90;8.98;;;;;;;;;;4970859;28;20078;-74
2021/05/04 02:14:04;;;;;;;14.30;9.57;;;;;;;;;;4989044;28;20121;-74
2021/05/04 02:16:31;;;;;;;13.95;8.80;;;;;;;;;;4999071;28;20125;-74
2021/05/04 02:18:58;;;;;;;12.60;8.98;;;;;;;;;;5004760;28;20097;-74
2021/05/04 02:21:24;;;;;;;14.18;8.13;;;;;;;;;;4989539;28;20390;-74
2021/05/04 02:23:51;;;;;;;13.07;8.75;;;;;;;;;;4989911;28;20089;-74
2021/05/04 02:26:18;;;;;;;15.75;9.00;;;;;;;;;;4996924;28;20054;-74
2021/05/04 02:28:45;;;;;;;13.25;9.00;;;;;;;;;;4973076;28;20050;-74
2021/05/04 02:31:12;;;;;;;11.60;7.65;;;;;;;;;;4989904;28;20137;-74
2021/05/04 02:33:40;;;;;;;12.40;9.02;;;;;;;;;;4989458;28;20497;-74
2021/05/04 02:36:07;;;;;;;13.68;8.27;;;;;;;;;;4989524;28;20129;-74
2021/05/04 02:38:34;;;;;;;19.45;9.23;;;;;;;;;;4993714;28;20463;-74
2021/05/04 02:41:01;;;;;;;15.55;9.75;;;;;;;;;;4994285;28;20050;-74
2021/05/04 02:43:29;;;;;;;12.85;8.57;;;;;;;;;;4991699;28;20133;-74
2021/05/04 02:45:55;;;;;;;13.40;8.88;;;;;;;;;;4971594;28;20056;-73
2021/05/04 02:48:22;;;;;;;13.15;8.77;;;;;;;;;;4989275;28;20050;-74
2021/05/04 02:50:49;;;;;;;16.60;9.27;;;;;;;;;;4971547;28;20722;-74
2021/05/04 02:53:16;;;;;;;14.77;9.10;;;;;;;;;;4971406;28;20050;-74
2021/05/04 02:55:43;;;;;;;14.38;9.02;;;;;;;;;;4990876;28;20041;-74
2021/05/04 02:58:10;;;;;;;15.15;9.88;;;;;;;;;;5003254;28;20130;-74
2021/05/04 03:00:37;;;;;;;13.00;8.98;;;;;;;;;;4988869;28;20049;-74
2021/05/04 03:03:03;;;;;;;13.63;9.50;;;;;;;;;;4988555;28;20133;-74
2021/05/04 03:05:30;;;;;;;11.32;8.70;;;;;;;;;;4977037;28;20097;-74
2021/05/04 03:07:57;;;;;;;14.05;8.85;;;;;;;;;;4988820;28;20137;-74
2021/05/04 03:10:24;;;;;;;14.25;9.18;;;;;;;;;;4971742;28;20549;-74
2021/05/04 03:12:51;;;;;;;14.68;8.73;;;;;;;;;;4988629;28;20089;-73
2021/05/04 03:15:17;;;;;;;12.02;8.30;;;;;;;;;;4989031;28;20153;-74
2021/05/04 03:17:44;;;;;;;17.92;8.35;;;;;;;;;;4988995;28;20117;-74
2021/05/04 03:20:11;;;;;;;16.40;8.27;;;;;;;;;;4989128;28;20082;-74
2021/05/04 03:22:38;;;;;;;14.93;8.70;;;;;;;;;;4986668;28;20050;-74
2021/05/04 03:25:05;;;;;;;17.17;8.65;;;;;;;;;;4988975;28;20089;-74
2021/05/04 03:27:32;;;;;;;13.70;7.72;;;;;;;;;;4988499;28;20133;-74
2021/05/04 03:29:58;;;;;;;10.65;7.57;;;;;;;;;;4989114;28;20057;-74
2021/05/04 03:32:25;;;;;;;11.18;7.70;;;;;;;;;;4991931;28;20045;-74
2021/05/04 03:34:52;;;;;;;11.95;7.65;;;;;;;;;;4998136;28;20141;-74
2021/05/04 03:37:19;;;;;;;11.93;7.38;;;;;;;;;;4986824;28;20134;-73
2021/05/04 03:39:46;;;;;;;11.73;7.70;;;;;;;;;;4987804;28;20578;-74
2021/05/04 03:42:13;;;;;;;15.77;7.78;;;;;;;;;;4989242;28;20042;-74
2021/05/04 03:44:39;;;;;;;16.40;7.95;;;;;;;;;;4988782;28;20527;-74
2021/05/04 03:47:06;;;;;;;17.25;7.78;;;;;;;;;;4971480;28;20046;-74
2021/05/04 03:49:33;;;;;;;13.77;7.50;;;;;;;;;;4966226;28;20050;-74
2021/05/04 03:52:00;;;;;;;13.25;8.00;;;;;;;;;;4978714;28;20652;-74
2021/05/04 03:54:27;;;;;;;14.05;7.63;;;;;;;;;;4973932;28;20138;-74
2021/05/04 03:56:53;;;;;;;13.20;7.50;;;;;;;;;;4976770;28;20057;-73
2021/05/04 03:59:21;;;;;;;16.05;7.72;;;;;;;;;;4978143;28;20134;-74
2021/05/04 04:01:48;;;;;;;16.05;7.95;;;;;;;;;;4978984;28;20112;-74
2021/05/04 04:04:14;;;;;;;11.68;7.18;;;;;;;;;;4961632;28;20097;-74
2021/05/04 04:06:41;;;;;;;18.35;7.75;;;;;;;;;;4974964;28;20165;-74
2021/05/04 04:09:08;;;;;;;10.38;7.40;;;;;;;;;;4982167;28;20827;-74
2021/05/04 04:11:35;;;;;;;12.77;7.22;;;;;;;;;;4966480;28;20050;-74
2021/05/04 04:14:01;;;;;;;12.63;7.07;;;;;;;;;;4983567;28;20104;-74
2021/05/04 04:16:28;;;;;;;11.70;7.05;;;;;;;;;;4960349;28;20145;-74
2021/05/04 04:18:55;;;;;;;11.60;6.65;;;;;;;;;;4982291;28;20137;-74
2021/05/04 04:21:21;;;;;;;12.05;7.45;;;;;;;;;;4987088;28;20054;-74
2021/05/04 04:23:48;;;;;;;16.60;7.07;;;;;;;;;;4999608;28;20163;-74
2021/05/04 04:26:15;;;;;;;10.40;7.43;;;;;;;;;;4989583;28;20204;-74
2021/05/04 04:28:41;;;;;;;11.55;7.75;;;;;;;;;;4986743;28;20055;-74
2021/05/04 04:31:08;;;;;;;15.20;6.65;;;;;;;;;;4987338;28;20140;-74
2021/05/04 04:33:35;;;;;;;12.13;6.72;;;;;;;;;;4988143;28;20045;-74
2021/05/04 04:36:01;;;;;;;11.73;7.10;;;;;;;;;;4970380;28;20081;-74
2021/05/04 04:38:28;;;;;;;13.95;8.02;;;;;;;;;;4987927;28;20129;-74
2021/05/04 04:40:55;;;;;;;10.55;6.88;;;;;;;;;;4973434;28;20496;-74
2021/05/04 04:43:21;;;;;;;9.55;6.13;;;;;;;;;;4980911;28;20081;-74
2021/05/04 04:45:48;;;;;;;9.23;6.53;;;;;;;;;;4987369;28;20094;-74
2021/05/04 04:48:14;;;;;;;11.10;6.45;;;;;;;;;;4994261;28;20575;-74
2021/05/04 04:50:41;;;;;;;13.65;7.47;;;;;;;;;;4994205;28;20056;-74
2021/05/04 04:53:08;;;;;;;12.95;7.47;;;;;;;;;;4981524;28;20050;-75
2021/05/04 04:55:35;;;;;;;8.88;7.15;;;;;;;;;;4997073;28;20134;-74
2021/05/04 04:58:01;;;;;;;15.77;8.25;;;;;;;;;;4993129;28;20129;-74
2021/05/04 05:00:32;;;;;;;9.77;6.90;;;;;;;;;;4995460;28;20046;-74
2021/05/04 05:02:59;;;;;;;13.27;8.35;;;;;;;;;;4992420;28;20050;-75
2021/05/04 05:05:26;;;;;;;16.23;8.35;;;;;;;;;;4981725;28;20065;-77
2021/05/04 05:07:52;;;;;;;14.43;7.82;;;;;;;;;;4977645;28;20090;-76
2021/05/04 05:10:19;;;;;;;14.77;8.77;;;;;;;;;;4961733;28;20089;-80
2021/05/04 05:12:46;;;;;;;18.42;9.35;;;;;;;;;;4965113;28;20139;-77
2021/05/04 05:15:14;;;;;;;13.68;8.90;;;;;;;;;;4972042;28;20058;-77
2021/05/04 05:17:41;;;;;;;20.20;9.13;;;;;;;;;;4987133;28;20401;-77
2021/05/04 05:20:08;;;;;;;15.52;9.05;;;;;;;;;;4964565;28;20046;-76
2021/05/04 05:22:34;;;;;;;13.45;8.20;;;;;;;;;;4985842;28;20100;-78
2021/05/04 05:25:01;;;;;;;14.00;9.10;;;;;;;;;;4964955;28;20077;-76
2021/05/04 05:27:33;;;;;;;20.38;9.68;;;;;;;;;;4979638;28;20129;-78
2021/05/04 05:30:00;;;;;;;16.02;9.55;;;;;;;;;;4989102;28;20054;-76
2021/05/04 05:32:27;;;;;;;16.92;9.70;;;;;;;;;;4995618;28;20405;-75
2021/05/04 05:34:54;;;;;;;13.43;8.85;;;;;;;;;;4991176;28;20046;-76
2021/05/04 05:37:21;;;;;;;15.18;9.15;;;;;;;;;;4987497;28;20046;-74
2021/05/04 05:39:47;;;;;;;20.23;9.65;;;;;;;;;;4985908;28;20082;-74
2021/05/04 05:42:14;;;;;;;15.38;10.32;;;;;;;;;;4984091;28;20050;-74
2021/05/04 05:44:41;;;;;;;16.65;10.50;;;;;;;;;;4988697;28;20105;-75
2021/05/04 05:47:07;;;;;;;17.25;10.63;;;;;;;;;;4973536;28;20169;-75
2021/05/04 05:49:36;;;;;;;18.30;9.38;;;;;;;;;;4980888;28;20121;-75
2021/05/04 05:52:03;;;;;;;15.30;9.82;;;;;;;;;;4998322;28;20715;-76
2021/05/04 05:54:33;;;;;;;22.90;10.25;;;;;;;;;;4982638;28;20185;-76
2021/05/04 05:56:59;;;;;;;18.73;10.10;;;;;;;;;;4984381;28;20125;-75
2021/05/04 05:59:26;;;;;;;14.70;9.00;;;;;;;;;;5003127;28;20564;-75
2021/05/04 06:01:52;;;;;;;14.02;8.80;;;;;;;;;;5007626;28;20142;-76
2021/05/04 06:04:19;;;;;;;20.08;10.32;;;;;;;;;;4982483;28;20050;-75
2021/05/04 06:06:46;;;;;;;16.13;8.70;;;;;;;;;;4986907;28;20137;-75
2021/05/04 06:09:12;;;;;;;15.43;8.98;;;;;;;;;;4980585;28;20082;-76
2021/05/04 06:11:40;;;;;;;16.40;8.82;;;;;;;;;;4977782;28;20118;-76
2021/05/04 06:14:06;;;;;;;13.38;8.35;;;;;;;;;;4981905;28;20161;-75
2021/05/04 06:16:33;;;;;;;13.27;8.48;;;;;;;;;;4986885;28;20180;-75
2021/05/04 06:19:00;;;;;;;13.90;8.32;;;;;;;;;;4986784;28;20050;-75
2021/05/04 06:21:29;;;;;;;14.60;8.65;;;;;;;;;;4986213;28;20050;-75
2021/05/04 06:23:56;;;;;;;15.23;8.45;;;;;;;;;;4985992;28;20054;-76
2021/05/04 06:26:23;;;;;;;14.45;8.00;;;;;;;;;;4984861;28;20082;-75
2021/05/04 06:28:50;;;;;;;13.30;7.88;;;;;;;;;;4985267;28;20464;-75
2021/05/04 06:31:17;;;;;;;16.42;8.38;;;;;;;;;;4986376;28;20133;-75
2021/05/04 06:33:44;;;;;;;14.30;7.88;;;;;;;;;;4968937;28;20141;-75
2021/05/04 06:36:12;;;;;;;12.45;8.43;;;;;;;;;;4986097;28;20086;-76
2021/05/04 06:38:38;;;;;;;13.50;8.10;;;;;;;;;;4987223;28;20054;-76
2021/05/04 06:41:05;;;;;;;14.52;8.27;;;;;;;;;;4987025;28;20109;-76
2021/05/04 06:43:32;;;;;;;10.60;6.93;;;;;;;;;;4986920;28;20361;-75
2021/05/04 06:45:59;;;;;;;11.48;6.90;;;;;;;;;;4986112;28;20081;-75
2021/05/04 06:48:26;;;;;;;13.35;8.18;;;;;;;;;;4985946;28;20503;-75
2021/05/04 06:50:54;;;;;;;11.63;7.18;;;;;;;;;;4986614;28;20129;-76
2021/05/04 06:53:21;;;;;;;11.93;7.85;;;;;;;;;;4989913;28;20824;-76
2021/05/04 06:55:48;;;;;;;16.25;8.25;;;;;;;;;;4989836;28;20086;-76
2021/05/04 06:58:14;;;;;;;11.63;7.13;;;;;;;;;;4972772;28;20077;-75
2021/05/04 07:00:41;;;;;;;10.98;7.10;;;;;;;;;;4989558;28;20094;-74
2021/05/04 07:03:08;;;;;;;12.85;6.97;;;;;;;;;;4975840;28;20085;-74
2021/05/04 07:05:34;;;;;;;11.23;6.57;;;;;;;;;;4993285;28;20093;-74
2021/05/04 07:08:01;;;;;;;11.43;6.25;;;;;;;;;;4973853;28;20054;-74
2021/05/04 07:10:28;;;;;;;11.52;7.07;;;;;;;;;;4989149;28;20773;-74
2021/05/04 07:12:55;;;;;;;13.75;7.10;;;;;;;;;;4988479;28;20141;-74
2021/05/04 07:15:22;;;;;;;11.45;7.00;;;;;;;;;;4988584;28;20133;-74
2021/05/04 07:17:49;;;;;;;12.48;6.93;;;;;;;;;;4988323;28;20651;-73
2021/05/04 07:20:18;;;;;;;12.60;6.65;;;;;;;;;;4989656;28;20059;-74
2021/05/04 07:22:45;;;;;;;11.88;6.90;;;;;;;;;;4989344;28;20126;-74
2021/05/04 07:25:12;;;;;;;12.82;6.93;;;;;;;;;;4988714;28;20054;-73
2021/05/04 07:27:39;;;;;;;10.07;6.28;;;;;;;;;;4987934;28;20133;-74
2021/05/04 07:30:06;;;;;;;10.13;6.53;;;;;;;;;;4988902;28;20059;-75
2021/05/04 07:32:33;;;;;;;10.07;6.82;;;;;;;;;;4989988;28;20132;-75
2021/05/04 07:35:01;;;;;;;10.63;6.68;;;;;;;;;;4989028;28;20444;-75
2021/05/04 07:37:28;;;;;;;10.45;6.53;;;;;;;;;;4988097;28;20149;-74
2021/05/04 07:39:55;;;;;;;9.57;7.13;;;;;;;;;;4982997;28;20054;-74
2021/05/04 07:42:21;;;;;;;9.65;6.95;;;;;;;;;;4991013;28;20884;-74
2021/05/04 07:44:48;;;;;;;9.00;6.28;;;;;;;;;;5001568;28;20807;-76
2021/05/04 07:47:15;;;;;;;11.52;6.00;;;;;;;;;;4993380;28;20051;-76
2021/05/04 07:49:47;;;;;;;12.93;6.28;;;;;;;;;;4988809;28;20061;-75
2021/05/04 07:52:14;;;;;;;10.65;6.50;;;;;;;;;;4988558;28;20054;-75
2021/05/04 07:54:43;;;;;;;9.10;6.03;;;;;;;;;;4987765;28;20486;-75
2021/05/04 07:57:10;;;;;;;53.33;10.63;;;;;;;;;;4991914;28;20084;-74
2021/05/04 07:59:37;;;;;;;30.10;8.75;;;;;;;;;;4969246;28;20554;-74
2021/05/04 08:02:04;;;;;;;10.05;5.82;;;;;;;;;;4987670;28;20217;-74
2021/05/04 08:04:31;;;;;;;9.98;6.13;;;;;;;;;;4990299;28;20054;-74
2021/05/04 08:07:00;;;;;;;10.13;6.22;;;;;;;;;;4987938;28;20129;-74
2021/05/04 08:09:28;;;;;;;15.40;6.22;;;;;;;;;;4988684;28;20892;-73
2021/05/04 08:11:55;;;;;;;10.45;6.32;;;;;;;;;;4988060;28;20065;-73
2021/05/04 08:14:22;;;;;;;13.10;5.38;;;;;;;;;;4987144;28;20873;-73
2021/05/04 08:16:50;;;;;;;8.13;6.00;;;;;;;;;;4987340;28;20046;-73
2021/05/04 08:19:17;;;;;;;9.55;6.55;;;;;;;;;;4987417;28;20050;-74
2021/05/04 08:21:44;;;;;;;9.23;5.95;;;;;;;;;;4984526;28;20052;-73
2021/05/04 08:24:12;;;;;;;8.02;5.70;;;;;;;;;;4970690;28;20090;-74
2021/05/04 08:26:39;;;;;;;8.23;6.10;;;;;;;;;;4992155;28;20132;-74
2021/05/04 08:29:06;;;;;;;9.07;5.65;;;;;;;;;;5000717;28;20547;-74
2021/05/04 08:31:34;;;;;;;10.90;6.22;;;;;;;;;;5001467;28;20161;-73
2021/05/04 08:34:01;;;;;;;11.18;5.50;;;;;;;;;;4984052;28;20104;-74
2021/05/04 08:36:28;;;;;;;6.90;5.57;;;;;;;;;;4994692;28;20085;-73
2021/05/04 08:38:55;;;;;;;9.55;6.13;;;;;;;;;;5000056;28;20470;-74
2021/05/04 08:41:22;;;;;;;10.50;5.63;;;;;;;;;;5003545;28;20101;-75
2021/05/04 08:43:49;;;;;;;7.43;5.03;;;;;;;;;;4967271;28;20142;-75
2021/05/04 08:46:20;;;;;;;9.65;5.90;;;;;;;;;;4987327;28;20081;-74
2021/05/04 08:48:47;;;;;;;8.73;5.57;;;;;;;;;;4985722;28;20078;-75
2021/05/04 08:51:15;;;;;;;8.40;5.15;;;;;;;;;;4972329;28;20788;-74
2021/05/04 08:54:00;;;;;;;6.80;4.97;;;;;;;;;;4994232;28;20184;-73
2021/05/04 08:56:27;;;;;;;10.40;5.35;;;;;;;;;;5003247;28;20053;-74
2021/05/04 08:58:53;;;;;;;7.63;5.47;;;;;;;;;;4982270;28;20074;-74
2021/05/04 09:01:20;;;;;;;10.45;5.20;;;;;;;;;;4970514;28;20061;-74
2021/05/04 09:03:50;;;;;;;14.55;5.35;;;;;;;;;;4971850;28;20054;-73
2021/05/04 09:06:25;;;;;;;15.93;6.20;;;;;;;;;;4974357;28;20068;-72
2021/05/04 09:08:57;;;;;;;11.45;6.28;;;;;;;;;;4973083;28;20467;-73
2021/05/04 09:14:23;;;;;;;9.38;5.25;;;;;;;;;;4972836;28;20070;-72
2021/05/04 09:17:04;;;;;;;7.40;4.45;;;;;;;;;;4974310;28;20166;-72
2021/05/04 09:21:58;;;;;;;12.48;5.28;;;;;;;;;;4978038;28;20061;-73
2021/05/04 09:24:28;;;;;;;6.57;4.60;;;;;;;;;;4958720;28;20153;-73
2021/05/04 09:26:59;;;;;;;7.15;4.60;;;;;;;;;;4981164;28;20128;-72
2021/05/04 09:29:30;;;;;;;14.13;4.70;;;;;;;;;;4960095;28;20484;-73
2021/05/04 09:32:09;;;;;;;8.20;4.40;;;;;;;;;;4970586;28;20712;-74
2021/05/04 09:34:46;;;;;;;10.85;4.22;;;;;;;;;;4954953;28;20078;-73
2021/05/04 09:37:23;;;;;;;7.72;4.35;;;;;;;;;;4978636;28;20061;-73
2021/05/04 09:39:50;;;;;;;8.52;4.50;;;;;;;;;;4976268;28;20096;-73
2021/05/04 09:42:16;;;;;;;8.63;4.45;;;;;;;;;;5057918;22;20107;-73
2021/05/04 09:44:47;;;;;;;6.53;3.95;;;;;;;;;;5010439;28;20113;-78
2021/05/04 09:47:25;;;;;;;21.58;4.03;;;;;;;;;;4998569;28;20644;-79
2021/05/04 09:49:53;;;;;;;8.23;4.20;;;;;;;;;;5013572;28;20073;-79
2021/05/04 09:52:47;;;;;;;7.65;3.50;;;;;;;;;;5013726;28;20107;-78
2021/05/04 09:55:17;;;;;;;8.48;3.50;;;;;;;;;;5013653;28;20133;-73
2021/05/04 09:57:51;;;;;;;7.05;3.63;;;;;;;;;;5005524;28;20695;-73
2021/05/04 10:00:21;;;;;;;4.85;3.00;;;;;;;;;;5013298;28;20120;-73
2021/05/04 10:02:50;;;;;;;14.85;3.47;;;;;;;;;;5014356;28;20040;-74
2021/05/04 10:05:18;;;;;;;5.95;3.08;;;;;;;;;;5016955;28;20127;-73
2021/05/04 10:07:45;;;;;;;10.32;3.40;;;;;;;;;;5017565;28;20163;-74
2021/05/04 10:10:13;;;;;;;3.60;3.05;;;;;;;;;;5015213;28;20077;-74
2021/05/04 10:12:41;;;;;;;4.82;3.60;;;;;;;;;;4997234;28;20107;-74
2021/05/04 10:15:11;;;;;;;6.18;3.95;;;;;;;;;;5013824;28;20041;-74
2021/05/04 10:17:39;;;;;;;11.90;3.75;;;;;;;;;;5015195;28;20835;-74
2021/05/04 10:20:10;;;;;;;5.85;3.53;;;;;;;;;;5014885;28;20111;-73
2021/05/04 10:25:46;;;;;;;11.15;3.53;;;;;;;;;;5026461;28;20492;-78
2021/05/04 10:28:13;;;;;;;6.38;3.33;;;;;;;;;;5015485;28;20132;-79
2021/05/04 10:30:40;;;;;;;7.80;3.20;;;;;;;;;;5011538;28;20045;-79
2021/05/04 10:33:11;;;;;;;5.38;3.22;;;;;;;;;;5004792;28;20084;-79
2021/05/04 10:35:40;;;;;;;5.82;3.60;;;;;;;;;;5005183;28;20092;-79
2021/05/04 10:38:11;;;;;;;8.13;3.30;;;;;;;;;;5003525;28;20045;-79
2021/05/04 10:40:40;;;;;;;6.05;3.33;;;;;;;;;;5028860;28;20532;-78
2021/05/04 10:43:23;;;;;;;6.68;3.45;;;;;;;;;;5021452;28;20080;-78
2021/05/04 10:45:51;;;;;;;5.53;3.20;;;;;;;;;;5014991;28;20077;-79
2021/05/04 10:48:36;;;;;;;6.22;3.92;;;;;;;;;;5023001;28;20494;-78
2021/05/04 10:51:05;;;;;;;11.02;4.50;;;;;;;;;;4994895;28;20052;-81
2021/05/04 10:53:51;;;;;;;4.45;3.50;;;;;;;;;;5013804;28;20061;-82
2021/05/04 10:56:18;;;;;;;7.65;3.97;;;;;;;;;;5013189;28;20037;-80
2021/05/04 10:58:51;;;;;;;5.80;4.70;;;;;;;;;;4997997;28;20158;-80
2021/05/04 11:01:18;;;;;;;11.02;4.18;;;;;;;;;;5025493;28;20050;-80
2021/05/04 11:03:46;;;;;;;7.25;3.75;;;;;;;;;;4995731;28;20076;-80
2021/05/04 11:06:14;;;;;;;6.72;4.22;;;;;;;;;;5013775;28;20077;-81
2021/05/04 11:08:41;;;;;;;4.97;4.18;;;;;;;;;;5013748;28;20082;-81
2021/05/04 11:11:20;;;;;;;9.48;5.03;;;;;;;;;;5012993;28;20089;-79
2021/05/04 11:13:47;;;;;;;8.60;4.05;;;;;;;;;;5012543;28;20096;-79
2021/05/04 11:16:34;;;;;;;9.95;4.20;;;;;;;;;;5013203;28;20116;-80
2021/05/04 11:19:04;;;;;;;6.10;3.95;;;;;;;;;;5012639;28;20092;-80
2021/05/04 11:21:50;;;;;;;7.25;4.50;;;;;;;;;;5022041;28;20081;-80
2021/05/04 11:24:17;;;;;;;5.55;4.10;;;;;;;;;;5002744;28;20647;-80
2021/05/04 11:26:51;;;;;;;15.90;4.63;;;;;;;;;;5030595;28;20824;-80
2021/05/04 11:29:19;;;;;;;6.32;4.65;;;;;;;;;;5030466;28;20140;-79
2021/05/04 11:31:47;;;;;;;9.70;4.63;;;;;;;;;;5022824;28;20410;-79
2021/05/04 11:34:32;;;;;;;8.15;4.55;;;;;;;;;;5031653;28;20053;-79
2021/05/04 11:37:00;;;;;;;13.68;5.65;;;;;;;;;;5028487;28;20144;-79
2021/05/04 11:39:28;;;;;;;5.85;4.40;;;;;;;;;;5030947;28;20100;-79
2021/05/04 11:42:03;;;;;;;5.78;4.38;;;;;;;;;;5030869;28;20089;-79
2021/05/04 11:44:34;;;;;;;8.98;4.90;;;;;;;;;;5014356;28;20045;-79
2021/05/04 11:47:21;;;;;;;8.13;4.53;;;;;;;;;;5009230;28;20434;-80
2021/05/04 11:49:49;;;;;;;8.68;4.97;;;;;;;;;;5003862;28;20144;-79
2021/05/04 11:52:17;;;;;;;6.57;4.43;;;;;;;;;;5027220;28;20081;-80
2021/05/04 11:54:46;;;;;;;11.35;4.93;;;;;;;;;;5032055;28;20064;-80
2021/05/04 11:57:14;;;;;;;7.28;4.60;;;;;;;;;;5032508;28;20049;-80
2021/05/04 11:59:55;;;;;;;7.18;4.45;;;;;;;;;;5016725;28;20111;-80
2021/05/04 12:02:31;;;;;;;7.65;4.93;;;;;;;;;;5031905;28;20084;-80
2021/05/04 12:04:58;;;;;;;6.75;4.90;;;;;;;;;;5011901;28;20045;-80
2021/05/04 12:07:42;;;;;;;4.63;3.65;;;;;;;;;;5014393;28;20072;-81
2021/05/04 12:10:15;;;;;;;7.15;4.38;;;;;;;;;;5019830;28;20045;-80
2021/05/04 12:12:44;;;;;;;4.75;3.78;;;;;;;;;;5032823;28;20072;-80
2021/05/04 12:15:17;;;;;;;9.02;3.88;;;;;;;;;;5013950;28;20045;-81
2021/05/04 12:17:55;;;;;;;6.88;4.15;;;;;;;;;;5014084;28;20719;-80
2021/05/04 12:20:22;;;;;;;4.72;3.53;;;;;;;;;;5013279;28;20089;-80
2021/05/04 12:22:50;;;;;;;4.40;3.25;;;;;;;;;;5031367;28;20126;-81
2021/05/04 12:25:21;;;;;;;4.82;3.03;;;;;;;;;;5013597;28;20049;-81
2021/05/04 12:27:48;;;;;;;5.55;3.20;;;;;;;;;;5013190;28;20159;-80
2021/05/04 12:30:19;;;;;;;7.13;3.45;;;;;;;;;;5026610;28;20812;-80
2021/05/04 12:32:47;;;;;;;3.80;2.70;;;;;;;;;;5026954;28;20140;-82
2021/05/04 12:35:33;;;;;;;4.50;2.63;;;;;;;;;;5028129;28;20525;-82
2021/05/04 12:38:34;;;;;;;7.20;3.10;;;;;;;;;;5010271;28;20107;-82
2021/05/04 12:41:16;;;;;;;4.05;2.50;;;;;;;;;;5029305;28;20053;-82
2021/05/04 12:44:01;;;;;;;4.65;2.42;;;;;;;;;;5013394;28;20046;-81
2021/05/04 12:46:42;;;;;;;5.37;2.67;;;;;;;;;;5014230;28;20045;-83
2021/05/04 12:49:09;;;;;;;4.70;2.10;;;;;;;;;;5031463;28;20084;-86
2021/05/04 12:54:22;;;;;;;11.75;2.00;;;;;;;;;;4988547;28;20072;-76
2021/05/04 12:56:54;;;;;;;5.50;2.10;;;;;;;;;;4969870;28;20051;-77
2021/05/04 12:59:31;;;;;;;3.45;2.10;;;;;;;;;;4993297;28;20073;-80
2021/05/04 13:02:05;;;;;;;4.80;2.08;;;;;;;;;;4972899;28;20132;-79
2021/05/04 13:07:23;;;;;;;5.43;1.60;;;;;;;;;;5007268;28;20076;-79
2021/05/04 13:09:55;;;;;;;4.45;1.35;;;;;;;;;;4975515;28;20137;-77
2021/05/04 13:12:38;;;;;;;7.03;2.13;;;;;;;;;;4967586;28;20085;-76
2021/05/04 13:21:07;;;;;;;;;;;;;;;;;;4977813;28;20582;-77
2021/05/04 13:29:37;;;;;;;1.67;1.10;;;;;;;;;;4985841;28;20054;-77
2021/05/04 13:32:15;;;;;;;5.70;1.70;;;;;;;;;;4986363;28;20076;-77
2021/05/04 13:34:54;;;;;;;3.67;1.35;;;;;;;;;;4986265;28;20046;-76
2021/05/04 13:37:24;;;;;;;2.88;1.42;;;;;;;;;;4971815;28;20050;-78
2021/05/04 13:48:01;;;;;;;9.88;1.05;;;;;;;;;;4982173;28;20172;-77
2021/05/04 13:50:28;;;;;;;1.02;0.70;;;;;;;;;;4956798;28;20046;-78
2021/05/04 13:52:55;;;;;;;3.10;1.25;;;;;;;;;;4951410;28;20383;-77
2021/05/04 13:55:22;;;;;;;13.82;1.40;;;;;;;;;;4966338;28;20055;-77
2021/05/04 13:57:52;;;;;;;12.18;1.25;;;;;;;;;;4953764;28;20105;-76
2021/05/04 14:00:35;;;;;;;6.53;1.23;;;;;;;;;;4986292;28;20690;-77
2021/05/04 14:06:11;;;;;;;4.47;1.10;;;;;;;;;;4990073;28;20062;-77
2021/05/04 14:25:30;;;;;;;2.25;1.10;;;;;;;;;;4988092;28;20020;-77
2021/05/04 14:27:57;;;;;;;1.90;1.17;;;;;;;;;;4963968;28;20798;-77
2021/05/04 14:30:24;;;;;;;9.02;2.42;;;;;;;;;;4988917;28;20060;-78
2021/05/04 14:32:51;;;;;;;5.70;1.50;;;;;;;;;;4990700;28;20094;-80
2021/05/04 14:35:30;;;;;;;5.20;1.20;;;;;;;;;;4979707;28;20074;-78
2021/05/04 14:38:11;;;;;;;7.32;1.67;;;;;;;;;;4968550;28;20145;-78
2021/05/04 14:41:27;;;;;;;5.88;1.70;;;;;;;;;;4953307;28;20054;-78
2021/05/04 14:46:54;;;;;;;2.20;0.82;;;;;;;;;;4988976;28;20519;-77
2021/05/04 14:58:29;;;;;;;;;;;;;;;;;;4972502;28;20115;-77
2021/05/04 15:02:54;;;;;;;2.70;0.60;;;;;;;;;;4992882;28;20082;-78
2021/05/04 15:05:24;;;;;;;2.00;0.82;;;;;;;;;;4994385;28;20058;-78
2021/05/04 15:07:51;;;;;;;1.75;0.45;;;;;;;;;;4991099;28;20085;-77
2021/05/04 15:10:18;;;;;;;1.25;0.60;;;;;;;;;;4983629;28;20046;-77
2021/05/04 15:12:45;;;;;;;1.67;0.70;;;;;;;;;;4978628;28;20153;-77
2021/05/04 15:18:19;;;;;;;5.10;1.20;;;;;;;;;;4987851;28;20502;-77
2021/05/04 15:21:21;;;;;;;2.38;0.90;;;;;;;;;;4984622;28;20090;-77
2021/05/04 15:23:45;;;;;;;1.88;1.02;;;;;;;;;;4969408;28;20081;-77
2021/05/04 15:26:11;;;;;;;1.15;0.90;;;;;;;;;;4969160;28;20086;-77
2021/05/04 15:28:38;;;;;;;3.15;1.02;;;;;;;;;;4969355;28;20061;-77
2021/05/04 15:31:05;;;;;;;2.80;1.25;;;;;;;;;;4966238;28;20070;-77
2021/05/04 15:33:33;;;;;;;2.10;1.20;;;;;;;;;;4988190;28;20077;-77
2021/05/04 15:36:01;;;;;;;1.67;1.00;;;;;;;;;;4988838;28;20101;-77
2021/05/04 15:38:28;;;;;;;0.98;0.82;;;;;;;;;;4989264;28;20594;-77
2021/05/04 15:40:54;;;;;;;1.90;1.48;;;;;;;;;;4979720;28;20727;-77
2021/05/04 15:43:21;;;;;;;1.00;0.82;;;;;;;;;;4969408;28;20559;-81
2021/05/04 15:46:09;;;;;;;4.78;0.70;;;;;;;;;;4971963;28;20055;-76
2021/05/04 16:03:16;;;;;;;4.78;1.27;;;;;;;;;;4987738;28;20474;-77
2021/05/04 16:08:21;;;;;;;7.72;1.30;;;;;;;;;;4980701;28;20054;-77
2021/05/04 16:10:49;;;;;;;2.95;1.30;;;;;;;;;;4986674;28;20490;-77
2021/05/04 16:13:15;;;;;;;4.43;1.15;;;;;;;;;;4954564;28;20086;-77